createdAt,value
2018-12-07T00:01:18.551Z,27.60
2018-12-07T00:03:46.857Z,27.77
2018-12-07T00:06:15.053Z,26.20
2018-12-07T00:08:43.258Z,28.07
2018-12-07T00:11:11.454Z,27.80
2018-12-07T00:13:39.855Z,30.80
2018-12-07T00:16:08.045Z,27.90
2018-12-07T00:18:36.233Z,28.33
2018-12-07T00:21:04.432Z,24.87
2018-12-07T00:23:32.613Z,23.50
2018-12-07T00:26:00.814Z,27.17
2018-12-07T00:28:29.028Z,23.50
2018-12-07T00:30:57.212Z,25.07
2018-12-07T00:33:25.394Z,26.77
2018-12-07T00:35:53.604Z,27.23
2018-12-07T00:38:21.798Z,29.20
2018-12-07T00:40:49.979Z,25.60
2018-12-07T00:43:18.291Z,26.67
2018-12-07T00:45:46.478Z,25.43
2018-12-07T00:48:14.758Z,26.23
2018-12-07T00:50:43.073Z,25.90
2018-12-07T00:53:11.265Z,23.70
2018-12-07T00:55:39.791Z,25.20
2018-12-07T00:58:08.112Z,25.77
2018-12-07T01:00:36.293Z,24.37
2018-12-07T01:03:05.472Z,24.30
2018-12-07T01:05:33.693Z,25.63
2018-12-07T01:08:01.878Z,26.00
2018-12-07T01:10:30.077Z,23.90
2018-12-07T01:12:58.292Z,24.23
2018-12-07T01:15:26.496Z,26.77
2018-12-07T01:17:54.670Z,23.37
2018-12-07T01:20:22.885Z,23.73
2018-12-07T01:22:51.067Z,26.97
2018-12-07T01:25:19.321Z,25.00
2018-12-07T01:27:47.714Z,28.37
2018-12-07T01:30:15.880Z,26.07
2018-12-07T01:32:44.088Z,26.57
2018-12-07T01:35:12.299Z,26.43
2018-12-07T01:37:40.479Z,24.37
2018-12-07T01:40:08.828Z,25.03
2018-12-07T01:42:37.039Z,24.33
2018-12-07T01:45:05.880Z,25.20
2018-12-07T01:47:36.097Z,25.13
2018-12-07T01:50:05.184Z,23.93
2018-12-07T01:52:33.357Z,23.60
2018-12-07T01:55:01.556Z,23.17
2018-12-07T01:57:29.768Z,24.53
2018-12-07T01:59:57.965Z,24.53
2018-12-07T02:02:26.146Z,25.10
2018-12-07T02:04:54.363Z,23.43
2018-12-07T02:07:33.267Z,23.40
2018-12-07T02:10:01.491Z,22.50
2018-12-07T02:12:29.671Z,23.37
2018-12-07T02:14:57.891Z,24.57
2018-12-07T02:17:26.269Z,24.03
2018-12-07T02:19:54.451Z,22.80
2018-12-07T02:22:22.632Z,22.33
2018-12-07T02:24:50.985Z,22.40
2018-12-07T02:27:19.171Z,23.83
2018-12-07T02:29:47.361Z,22.40
2018-12-07T02:32:15.570Z,23.10
2018-12-07T02:34:43.748Z,22.73
2018-12-07T02:37:11.951Z,23.47
2018-12-07T02:39:40.261Z,21.80
2018-12-07T02:42:08.536Z,23.10
2018-12-07T02:44:36.820Z,23.07
2018-12-07T02:47:05.045Z,28.77
2018-12-07T02:49:33.232Z,28.80
2018-12-07T02:52:01.497Z,28.30
2018-12-07T02:54:29.718Z,28.00
2018-12-07T02:56:57.894Z,26.30
2018-12-07T02:59:26.079Z,25.23
2018-12-07T03:01:54.296Z,24.77
2018-12-07T03:04:22.648Z,23.50
2018-12-07T03:06:50.826Z,25.63
2018-12-07T03:09:19.173Z,29.97
2018-12-07T03:11:47.374Z,30.37
2018-12-07T03:14:15.557Z,30.60
2018-12-07T03:16:43.926Z,31.83
2018-12-07T03:19:12.122Z,30.77
2018-12-07T03:21:40.303Z,31.97
2018-12-07T03:24:08.730Z,31.97
2018-12-07T03:26:36.977Z,30.43
2018-12-07T03:29:05.219Z,30.63
2018-12-07T03:31:33.442Z,32.17
2018-12-07T03:34:02.523Z,32.53
2018-12-07T03:36:30.907Z,29.30
2018-12-07T03:38:59.107Z,33.50
2018-12-07T03:41:27.313Z,31.30
2018-12-07T03:43:55.484Z,31.70
2018-12-07T03:46:23.840Z,30.37
2018-12-07T03:48:52.044Z,30.60
2018-12-07T03:51:20.233Z,31.27
2018-12-07T03:53:48.561Z,31.47
2018-12-07T03:56:16.733Z,32.30
2018-12-07T03:58:44.918Z,28.97
2018-12-07T04:01:13.166Z,29.60
2018-12-07T04:03:41.902Z,32.00
2018-12-07T04:06:10.353Z,31.93
2018-12-07T04:08:38.566Z,31.13
2018-12-07T04:11:06.905Z,32.87
2018-12-07T04:13:35.084Z,32.30
2018-12-07T04:16:03.419Z,32.27
2018-12-07T04:18:31.709Z,30.23
2018-12-07T04:20:59.912Z,28.93
2018-12-07T04:23:28.122Z,30.43
2018-12-07T04:25:56.375Z,30.87
2018-12-07T04:28:24.557Z,29.93
2018-12-07T04:30:52.845Z,30.63
2018-12-07T04:33:21.031Z,29.00
2018-12-07T04:35:49.234Z,31.77
2018-12-07T04:38:17.457Z,29.37
2018-12-07T04:40:45.638Z,29.20
2018-12-07T04:43:13.838Z,30.10
2018-12-07T04:45:42.047Z,30.20
2018-12-07T04:48:10.240Z,29.97
2018-12-07T04:50:38.425Z,29.20
2018-12-07T04:53:06.773Z,29.33
2018-12-07T04:55:34.960Z,32.17
2018-12-07T04:58:03.286Z,33.03
2018-12-07T05:00:31.738Z,30.50
2018-12-07T05:02:59.919Z,31.80
2018-12-07T05:05:28.288Z,30.70
2018-12-07T05:07:56.506Z,32.13
2018-12-07T05:10:24.694Z,30.33
2018-12-07T05:12:52.970Z,29.10
2018-12-07T05:15:21.228Z,28.40
2018-12-07T05:17:49.409Z,29.57
2018-12-07T05:20:17.591Z,26.47
2018-12-07T05:22:45.833Z,28.47
2018-12-07T05:25:14.020Z,27.43
2018-12-07T05:27:42.211Z,28.70
2018-12-07T05:30:10.432Z,26.53
2018-12-07T05:32:38.618Z,26.83
2018-12-07T05:35:06.795Z,25.50
2018-12-07T05:37:35.000Z,28.00
2018-12-07T05:40:03.356Z,27.20
2018-12-07T05:42:31.616Z,27.13
2018-12-07T05:44:59.881Z,26.60
2018-12-07T05:47:28.067Z,25.33
2018-12-07T05:49:56.265Z,27.20
2018-12-07T05:52:24.715Z,28.20
2018-12-07T05:54:52.893Z,27.13
2018-12-07T05:57:21.064Z,26.00
2018-12-07T05:59:49.336Z,26.17
2018-12-07T06:02:17.529Z,27.13
2018-12-07T06:04:45.804Z,27.80
2018-12-07T06:07:14.010Z,26.90
2018-12-07T06:09:42.189Z,24.00
2018-12-07T06:12:10.378Z,25.87
2018-12-07T06:14:38.694Z,27.97
2018-12-07T06:17:07.030Z,27.53
2018-12-07T06:19:35.222Z,28.50
2018-12-07T06:22:03.423Z,28.50
2018-12-07T06:24:31.605Z,29.07
2018-12-07T06:26:59.793Z,26.77
2018-12-07T06:29:28.139Z,26.37
2018-12-07T06:32:02.285Z,25.07
2018-12-07T06:34:30.484Z,26.53
2018-12-07T06:36:58.653Z,25.43
2018-12-07T06:39:26.846Z,24.60
2018-12-07T06:41:55.176Z,25.03
2018-12-07T06:44:23.354Z,24.97
2018-12-07T06:46:51.529Z,25.87
2018-12-07T06:49:19.748Z,25.93
2018-12-07T06:51:53.898Z,25.57
2018-12-07T06:54:22.105Z,25.77
2018-12-07T06:56:50.277Z,25.30
2018-12-07T06:59:18.458Z,25.17
2018-12-07T07:01:46.666Z,27.03
2018-12-07T07:04:14.865Z,24.63
2018-12-07T07:06:43.046Z,23.60
2018-12-07T07:09:11.250Z,24.50
2018-12-07T07:11:39.551Z,24.40
2018-12-07T07:14:07.745Z,22.67
2018-12-07T07:16:35.954Z,23.40
2018-12-07T07:19:04.127Z,22.50
2018-12-07T07:21:32.333Z,22.97
2018-12-07T07:24:00.610Z,21.70
2018-12-07T07:26:28.808Z,21.87
2018-12-07T07:28:57.004Z,23.10
2018-12-07T07:31:25.233Z,22.27
2018-12-07T07:33:53.400Z,22.07
2018-12-07T07:36:21.661Z,23.13
2018-12-07T07:38:49.845Z,23.57
2018-12-07T07:41:18.022Z,22.47
2018-12-07T07:43:46.201Z,23.10
2018-12-07T07:46:14.453Z,23.67
2018-12-07T07:48:42.623Z,24.63
2018-12-07T07:51:10.883Z,24.27
2018-12-07T07:53:39.082Z,23.60
2018-12-07T07:56:07.259Z,23.03
2018-12-07T07:58:35.429Z,25.00
2018-12-07T08:01:03.627Z,26.30
2018-12-07T08:03:31.803Z,25.50
2018-12-07T08:05:59.995Z,25.83
2018-12-07T08:08:28.201Z,25.90
2018-12-07T08:10:56.382Z,23.80
2018-12-07T08:13:24.581Z,25.53
2018-12-07T08:15:52.930Z,27.60
2018-12-07T08:18:21.102Z,27.43
2018-12-07T08:20:49.261Z,44.23
2018-12-07T08:23:17.557Z,36.13
2018-12-07T08:25:45.734Z,29.87
2018-12-07T08:28:13.911Z,30.80
2018-12-07T08:30:42.112Z,33.03
2018-12-07T08:33:10.281Z,34.07
2018-12-07T08:35:38.438Z,34.17
2018-12-07T08:38:06.630Z,32.83
2018-12-07T08:40:34.797Z,36.43
2018-12-07T08:43:02.968Z,34.13
2018-12-07T08:45:31.160Z,35.07
2018-12-07T08:47:59.322Z,35.47
2018-12-07T08:50:27.494Z,32.63
2018-12-07T08:52:55.773Z,32.70
2018-12-07T08:55:23.930Z,34.17
2018-12-07T08:57:52.099Z,35.20
2018-12-07T09:00:20.399Z,35.40
2018-12-07T09:02:48.621Z,36.70
2018-12-07T09:05:16.785Z,37.10
2018-12-07T09:07:45.084Z,36.10
2018-12-07T09:10:13.335Z,34.70
2018-12-07T09:12:41.741Z,36.80
2018-12-07T09:15:09.933Z,37.50
2018-12-07T09:17:38.109Z,41.53
2018-12-07T09:20:06.978Z,41.80
2018-12-07T09:22:35.247Z,37.57
2018-12-07T09:25:04.198Z,39.83
2018-12-07T09:27:32.358Z,39.00
2018-12-07T09:30:00.550Z,38.67
2018-12-07T09:32:28.733Z,39.57
2018-12-07T09:34:56.904Z,38.57
2018-12-07T09:37:25.098Z,40.80
2018-12-07T09:39:53.260Z,38.20
2018-12-07T09:42:21.433Z,36.67
2018-12-07T09:44:49.640Z,35.20
2018-12-07T09:47:17.809Z,36.80
2018-12-07T09:49:45.984Z,38.03
2018-12-07T09:52:14.293Z,37.70
2018-12-07T09:54:42.469Z,35.67
2018-12-07T09:57:10.633Z,36.77
2018-12-07T09:59:38.855Z,34.60
2018-12-07T10:02:07.029Z,38.07
2018-12-07T10:07:09.503Z,38.03
2018-12-07T10:09:37.672Z,38.40
2018-12-07T10:12:05.838Z,36.70
2018-12-07T10:14:34.026Z,38.53
2018-12-07T10:17:02.191Z,35.27
2018-12-07T10:19:30.366Z,34.87
2018-12-07T10:21:58.550Z,35.53
2018-12-07T10:24:26.821Z,35.70
2018-12-07T10:26:55.358Z,34.60
2018-12-07T10:29:23.553Z,37.73
2018-12-07T10:31:51.729Z,35.50
2018-12-07T10:34:19.898Z,38.23
2018-12-07T10:36:48.086Z,36.20
2018-12-07T10:39:16.256Z,35.60
2018-12-07T10:41:44.426Z,38.73
2018-12-07T10:44:12.729Z,36.40
2018-12-07T10:46:40.903Z,38.27
2018-12-07T10:49:09.119Z,37.57
2018-12-07T10:51:37.459Z,37.93
2018-12-07T10:54:05.634Z,38.77
2018-12-07T10:56:33.910Z,38.93
2018-12-07T10:59:02.112Z,36.93
2018-12-07T11:01:35.890Z,39.70
2018-12-07T11:17:30.374Z,37.07
2018-12-07T11:20:04.179Z,36.37
2018-12-07T11:22:37.980Z,35.97
2018-12-07T11:25:11.677Z,35.30
2018-12-07T11:27:45.471Z,34.67
2018-12-07T11:30:19.173Z,35.27
2018-12-07T11:32:52.897Z,34.53
2018-12-07T11:35:23.148Z,32.57
2018-12-07T11:37:51.319Z,32.97
2018-12-07T11:40:19.531Z,33.43
2018-12-07T11:42:47.702Z,32.20
2018-12-07T11:45:15.876Z,30.10
2018-12-07T11:47:44.097Z,30.50
2018-12-07T11:50:12.293Z,30.70
2018-12-07T11:52:40.481Z,30.10
2018-12-07T11:55:08.753Z,30.30
2018-12-07T11:57:37.045Z,29.13
2018-12-07T12:00:06.403Z,26.50
2018-12-07T12:02:34.721Z,26.30
2018-12-07T12:05:02.965Z,30.80
2018-12-07T12:07:32.736Z,27.27
2018-12-07T12:10:01.185Z,26.13
2018-12-07T12:12:29.370Z,26.10
2018-12-07T12:14:57.560Z,25.83
2018-12-07T12:17:25.800Z,26.73
2018-12-07T12:19:54.070Z,26.27
2018-12-07T12:22:22.245Z,25.90
2018-12-07T12:24:50.441Z,25.50
2018-12-07T12:27:18.624Z,24.33
2018-12-07T12:29:46.797Z,25.50
2018-12-07T12:32:15.004Z,23.90
2018-12-07T12:34:43.298Z,25.07
2018-12-07T12:37:11.566Z,22.80
2018-12-07T12:39:39.799Z,23.27
2018-12-07T12:42:07.971Z,22.93
2018-12-07T12:44:36.151Z,22.47
2018-12-07T12:47:04.681Z,22.77
2018-12-07T12:49:32.869Z,23.30
2018-12-07T12:52:01.048Z,22.00
2018-12-07T12:54:29.259Z,21.90
2018-12-07T12:56:57.543Z,22.57
2018-12-07T12:59:25.725Z,23.07
2018-12-07T13:01:53.970Z,21.90
2018-12-07T13:04:22.174Z,20.23
2018-12-07T13:06:50.358Z,23.57
2018-12-07T13:09:19.070Z,21.97
2018-12-07T13:11:47.250Z,20.33
2018-12-07T13:14:15.429Z,21.30
2018-12-07T13:16:43.701Z,20.80
2018-12-07T13:19:11.886Z,19.60
2018-12-07T13:21:40.070Z,21.90
2018-12-07T13:24:08.336Z,19.23
2018-12-07T13:26:36.513Z,19.70
2018-12-07T13:29:04.694Z,21.50
2018-12-07T13:31:32.894Z,21.63
2018-12-07T13:34:01.109Z,20.10
2018-12-07T13:36:29.279Z,19.40
2018-12-07T13:38:57.536Z,19.17
2018-12-07T13:41:27.533Z,20.90
2018-12-07T13:43:56.001Z,20.50
2018-12-07T13:46:24.336Z,20.73
2018-12-07T13:48:52.752Z,19.13
2018-12-07T13:51:21.265Z,18.97
2018-12-07T13:53:49.669Z,18.30
2018-12-07T13:56:17.907Z,18.57
2018-12-07T13:58:46.479Z,17.60
2018-12-07T14:01:14.907Z,17.00
2018-12-07T14:03:43.381Z,16.90
2018-12-07T14:06:11.828Z,17.47
2018-12-07T14:08:40.362Z,22.30
2018-12-07T14:11:08.861Z,19.90
2018-12-07T14:13:37.252Z,18.50
2018-12-07T14:16:05.625Z,17.17
2018-12-07T14:18:34.027Z,18.83
2018-12-07T14:21:02.476Z,20.20
2018-12-07T14:23:31.207Z,16.37
2018-12-07T14:25:59.760Z,16.60
2018-12-07T14:28:28.034Z,17.20
2018-12-07T14:30:56.455Z,14.63
2018-12-07T14:33:24.926Z,14.70
2018-12-07T14:35:53.360Z,16.50
2018-12-07T14:38:21.717Z,13.90
2018-12-07T14:40:49.994Z,14.57
2018-12-07T14:43:18.307Z,15.20
2018-12-07T14:45:46.631Z,15.43
2018-12-07T14:48:14.929Z,17.87
2018-12-07T14:50:43.311Z,16.30
2018-12-07T14:53:11.671Z,17.63
2018-12-07T14:55:39.959Z,14.90
2018-12-07T14:58:08.200Z,15.67
2018-12-07T15:00:36.698Z,17.07
2018-12-07T15:03:05.370Z,19.53
2018-12-07T15:05:33.669Z,16.40
2018-12-07T15:08:01.873Z,17.47
2018-12-07T15:10:30.216Z,17.37
2018-12-07T15:12:58.775Z,18.10
2018-12-07T15:15:27.172Z,19.90
2018-12-07T15:17:55.438Z,18.70
2018-12-07T15:20:23.813Z,19.77
2018-12-07T15:22:52.160Z,18.90
2018-12-07T15:25:20.463Z,19.67
2018-12-07T15:27:49.275Z,19.27
2018-12-07T15:30:17.563Z,42.20
2018-12-07T15:32:45.899Z,21.67
2018-12-07T15:35:14.305Z,19.10
2018-12-07T15:37:42.627Z,25.80
2018-12-07T15:40:10.907Z,37.50
2018-12-07T15:42:39.907Z,22.23
2018-12-07T15:45:08.602Z,21.27
2018-12-07T15:47:36.807Z,19.10
2018-12-07T15:50:06.142Z,18.17
2018-12-07T15:52:34.835Z,19.13
2018-12-07T15:55:03.489Z,21.27
2018-12-07T15:57:31.992Z,21.40
2018-12-07T16:00:00.252Z,20.50
2018-12-07T16:02:28.847Z,20.07
2018-12-07T16:04:57.209Z,19.27
2018-12-07T16:07:25.506Z,19.60
2018-12-07T16:09:53.823Z,19.60
2018-12-07T16:12:22.239Z,20.53
2018-12-07T16:14:50.595Z,19.97
2018-12-07T16:17:18.904Z,19.53
2018-12-07T16:19:47.199Z,20.50
2018-12-07T16:22:15.597Z,20.77
2018-12-07T16:24:44.087Z,19.50
2018-12-07T16:27:12.394Z,22.57
2018-12-07T16:29:40.697Z,21.33
2018-12-07T16:32:08.943Z,23.93
2018-12-07T16:34:37.373Z,21.17
2018-12-07T16:37:05.704Z,21.33
2018-12-07T16:39:34.051Z,22.20
2018-12-07T16:42:02.286Z,21.90
2018-12-07T16:44:30.712Z,22.47
2018-12-07T16:46:58.939Z,20.27
2018-12-07T16:49:27.245Z,23.20
2018-12-07T16:51:55.853Z,23.67
2018-12-07T16:54:24.294Z,21.33
2018-12-07T16:56:52.677Z,24.07
2018-12-07T16:59:21.028Z,20.70
2018-12-07T17:01:49.415Z,21.33
2018-12-07T17:04:17.783Z,21.03
2018-12-07T17:06:46.259Z,21.87
2018-12-07T17:09:14.550Z,22.30
2018-12-07T17:11:42.949Z,21.50
2018-12-07T17:14:11.382Z,22.00
2018-12-07T17:16:39.893Z,24.00
2018-12-07T17:19:08.197Z,21.07
2018-12-07T17:21:36.603Z,21.97
2018-12-07T17:24:05.132Z,23.60
2018-12-07T17:26:33.608Z,22.67
2018-12-07T17:29:03.154Z,21.57
2018-12-07T17:31:31.378Z,23.90
2018-12-07T17:33:59.888Z,20.23
2018-12-07T17:36:28.253Z,21.83
2018-12-07T17:38:56.504Z,20.07
2018-12-07T17:41:24.799Z,20.60
2018-12-07T17:43:53.327Z,23.10
2018-12-07T17:46:21.825Z,19.90
2018-12-07T17:48:50.879Z,22.63
2018-12-07T17:51:19.226Z,22.37
2018-12-07T17:53:47.392Z,23.30
2018-12-07T17:56:15.891Z,23.53
2018-12-07T17:58:44.312Z,25.80
2018-12-07T18:01:12.669Z,26.43
2018-12-07T18:03:40.869Z,24.17
2018-12-07T18:06:09.319Z,22.03
2018-12-07T18:08:37.827Z,21.53
2018-12-07T18:11:06.351Z,23.00
2018-12-07T18:13:34.893Z,26.03
2018-12-07T18:16:03.118Z,27.30
2018-12-07T18:18:31.392Z,24.77
2018-12-07T18:20:59.597Z,22.00
2018-12-07T18:23:27.876Z,22.50
2018-12-07T18:25:56.178Z,21.70
2018-12-07T18:28:24.552Z,22.53
2018-12-07T18:30:52.869Z,31.47
2018-12-07T18:33:21.299Z,25.63
2018-12-07T18:35:49.839Z,22.87
2018-12-07T18:38:18.236Z,32.70
2018-12-07T18:40:46.588Z,26.23
2018-12-07T18:43:14.968Z,21.40
2018-12-07T18:45:43.349Z,22.17
2018-12-07T18:48:12.088Z,20.60
2018-12-07T18:50:40.795Z,21.27
2018-12-07T18:53:09.275Z,21.97
2018-12-07T18:55:37.557Z,21.23
2018-12-07T18:58:06.039Z,22.70
2018-12-07T19:00:34.353Z,22.17
2018-12-07T19:03:02.692Z,21.63
2018-12-07T19:05:31.234Z,21.57
2018-12-07T19:07:59.669Z,20.27
2018-12-07T19:10:28.169Z,21.33
2018-12-07T19:12:56.458Z,22.23
2018-12-07T19:15:24.804Z,22.67
2018-12-07T19:17:53.186Z,22.47
2018-12-07T19:20:21.848Z,24.90
2018-12-07T19:22:50.389Z,22.57
2018-12-07T19:25:19.513Z,23.90
2018-12-07T19:27:48.142Z,22.50
2018-12-07T19:30:16.589Z,23.13
2018-12-07T19:32:44.928Z,23.77
2018-12-07T19:35:13.648Z,23.60
2018-12-07T19:37:42.123Z,25.73
2018-12-07T19:40:10.330Z,24.37
2018-12-07T19:42:38.519Z,24.70
2018-12-07T19:45:08.905Z,23.77
2018-12-07T19:47:37.181Z,25.43
2018-12-07T19:50:07.356Z,24.23
2018-12-07T19:52:35.669Z,36.60
2018-12-07T19:55:05.367Z,26.10
2018-12-07T19:57:33.834Z,26.93
2018-12-07T20:00:02.121Z,25.07
2018-12-07T20:02:30.682Z,23.87
2018-12-07T20:04:58.878Z,22.60
2018-12-07T20:07:27.227Z,32.30
2018-12-07T20:09:55.687Z,33.67
2018-12-07T20:12:24.037Z,25.90
2018-12-07T20:14:52.236Z,31.63
2018-12-07T20:17:20.427Z,26.33
2018-12-07T20:19:48.668Z,22.33
2018-12-07T20:22:16.958Z,24.20
2018-12-07T20:24:45.244Z,24.10
2018-12-07T20:27:14.292Z,22.27
2018-12-07T20:29:42.851Z,22.57
2018-12-07T20:32:11.188Z,24.63
2018-12-07T20:34:39.400Z,26.23
2018-12-07T20:37:08.197Z,23.40
2018-12-07T20:39:36.706Z,27.00
2018-12-07T20:42:05.047Z,25.30
2018-12-07T20:44:33.232Z,25.10
2018-12-07T20:47:01.505Z,23.70
2018-12-07T20:49:29.933Z,24.77
2018-12-07T20:51:58.358Z,23.40
2018-12-07T20:54:27.659Z,22.67
2018-12-07T20:56:55.874Z,26.30
2018-12-07T20:59:24.154Z,26.63
2018-12-07T21:01:52.426Z,25.90
2018-12-07T21:04:32.060Z,26.50
2018-12-07T21:14:02.857Z,23.47
2018-12-07T21:19:47.796Z,24.70
2018-12-07T21:22:16.217Z,26.13
2018-12-07T21:24:44.743Z,25.30
2018-12-07T21:27:13.283Z,22.27
2018-12-07T21:29:41.833Z,23.20
2018-12-07T21:32:15.397Z,24.17
2018-12-07T21:35:00.007Z,23.20
2018-12-07T21:37:28.562Z,24.00
2018-12-07T21:40:03.038Z,22.67
2018-12-07T21:42:31.328Z,24.03
2018-12-07T21:44:59.523Z,26.33
2018-12-07T21:47:51.766Z,25.03
2018-12-07T21:50:20.272Z,23.50
2018-12-07T21:52:48.786Z,23.57
2018-12-07T21:55:17.209Z,24.30
2018-12-07T21:57:45.676Z,24.20
2018-12-07T22:00:14.138Z,25.80
2018-12-07T22:02:42.420Z,25.40
2018-12-07T22:05:10.875Z,22.43
2018-12-07T22:07:39.395Z,23.67
2018-12-07T22:10:07.839Z,23.47
2018-12-07T22:12:36.499Z,22.80
2018-12-07T22:15:05.555Z,21.73
2018-12-07T22:17:34.563Z,22.50
2018-12-07T22:20:03.330Z,21.93
2018-12-07T22:22:31.777Z,22.40
2018-12-07T22:25:00.523Z,23.03
2018-12-07T22:27:28.763Z,22.80
2018-12-07T22:29:57.109Z,21.50
2018-12-07T22:32:25.554Z,20.30
2018-12-07T22:34:54.030Z,21.20
2018-12-07T22:37:22.457Z,21.90
2018-12-07T22:39:50.957Z,22.40
2018-12-07T22:42:19.479Z,22.17
2018-12-07T22:44:47.833Z,22.00
2018-12-07T22:47:16.188Z,19.40
2018-12-07T22:49:44.671Z,21.87
2018-12-07T22:52:12.886Z,21.60
2018-12-07T22:54:41.089Z,21.77
2018-12-07T22:57:09.262Z,24.23
2018-12-07T22:59:37.424Z,22.50
2018-12-07T23:02:05.745Z,25.07
2018-12-07T23:04:33.925Z,22.37
2018-12-07T23:07:02.124Z,20.87
2018-12-07T23:09:30.861Z,21.50
2018-12-07T23:11:59.034Z,20.20
2018-12-07T23:14:27.240Z,28.77
2018-12-07T23:16:55.434Z,23.20
2018-12-07T23:19:23.637Z,22.50
2018-12-07T23:21:51.934Z,22.37
2018-12-07T23:24:20.145Z,23.30
2018-12-07T23:26:48.343Z,21.63
2018-12-07T23:29:21.281Z,21.53
2018-12-07T23:31:49.445Z,21.50
2018-12-07T23:34:17.613Z,21.93
2018-12-07T23:36:45.798Z,20.97
2018-12-07T23:39:13.970Z,21.33
2018-12-07T23:41:42.182Z,24.17
2018-12-07T23:44:10.368Z,21.97
2018-12-07T23:46:38.550Z,21.00
2018-12-07T23:49:06.722Z,22.57
2018-12-07T23:51:35.767Z,20.87
2018-12-07T23:54:04.094Z,22.87
2018-12-07T23:56:32.268Z,20.70
2018-12-07T23:59:00.464Z,21.60
